Time;durP1;ratioP1;P1;durP2;ratioP2;P2;SDS_P1;SDS_P2;PMS_P1;PMS_P2;Temp;Humidity;BMP_temperature;BMP_pressure;BME280_temperature;BME280_humidity;BME280_pressure;Samples;Min_cycle;Max_cycle;Signal;HPM_P1;HPM_P2
2023/03/12 00:00:28;;;;;;;0.20;0.20;;;-1.10;99.90;;;;;;5016577;28;20055;-73
2023/03/12 00:02:55;;;;;;;0.30;0.30;;;-1.20;99.90;;;;;;5034247;28;20025;-74
2023/03/12 00:05:21;;;;;;;0.30;0.30;;;-1.30;99.90;;;;;;5034151;28;20095;-73
2023/03/12 00:07:47;;;;;;;0.10;0.10;;;-1.40;99.90;;;;;;5034153;28;20489;-73
2023/03/12 00:10:13;;;;;;;0.20;0.20;;;-1.30;99.90;;;;;;5034381;28;20037;-73
2023/03/12 00:12:39;;;;;;;0.25;0.25;;;-1.30;99.90;;;;;;5034022;28;20033;-73
2023/03/12 00:15:06;;;;;;;0.10;0.10;;;-1.30;99.90;;;;;;5016242;28;20119;-73
2023/03/12 00:17:31;;;;;;;0.20;0.20;;;-1.30;99.90;;;;;;5034260;28;20375;-73
2023/03/12 00:19:57;;;;;;;0.20;0.20;;;-1.30;99.90;;;;;;5034196;28;20021;-73
2023/03/12 00:22:24;;;;;;;0.20;0.20;;;-1.20;99.90;;;;;;5033904;28;20032;-73
2023/03/12 00:24:51;;;;;;;0.20;0.20;;;-1.10;99.90;;;;;;5033808;28;20042;-73
2023/03/12 00:27:17;;;;;;;0.22;0.22;;;-1.10;99.90;;;;;;5034082;28;20030;-74
2023/03/12 00:29:43;;;;;;;0.25;0.25;;;-1.20;99.90;;;;;;5034024;28;20101;-73
2023/03/12 00:32:09;;;;;;;0.20;0.20;;;-1.20;99.90;;;;;;5033595;28;20108;-74
2023/03/12 00:34:34;;;;;;;0.20;0.20;;;-1.20;99.90;;;;;;5033989;28;20029;-74
2023/03/12 00:37:00;;;;;;;0.20;0.20;;;-1.20;99.90;;;;;;5033890;28;20364;-73
2023/03/12 00:39:25;;;;;;;0.20;0.20;;;-1.20;99.90;;;;;;5033603;28;20060;-74
2023/03/12 00:41:51;;;;;;;0.30;0.30;;;-1.30;99.90;;;;;;5033669;28;20025;-74
2023/03/12 00:44:16;;;;;;;0.30;0.30;;;-1.30;99.90;;;;;;5033474;28;20031;-74
2023/03/12 00:46:42;;;;;;;0.20;0.20;;;-1.40;99.90;;;;;;5034022;28;20368;-73
2023/03/12 00:49:07;;;;;;;0.20;0.20;;;-1.40;99.90;;;;;;5033440;28;20029;-74
2023/03/12 00:51:33;;;;;;;0.20;0.20;;;-1.50;99.90;;;;;;5033414;28;20026;-74
2023/03/12 00:53:58;;;;;;;0.10;0.10;;;-1.60;99.90;;;;;;5015320;28;20037;-74
2023/03/12 00:56:24;;;;;;;0.25;0.25;;;-1.70;99.90;;;;;;5033386;28;20406;-73
2023/03/12 00:58:50;;;;;;;0.30;0.30;;;-1.70;99.90;;;;;;5033887;28;20052;-73
2023/03/12 01:01:16;;;;;;;0.20;0.20;;;-1.80;99.90;;;;;;5033267;28;20418;-74
2023/03/12 01:03:41;;;;;;;0.30;0.30;;;-1.80;99.90;;;;;;5015561;28;20029;-73
2023/03/12 01:06:07;;;;;;;0.17;0.17;;;-1.90;99.90;;;;;;5033030;28;20025;-73
2023/03/12 01:08:33;;;;;;;0.20;0.20;;;-2.00;99.90;;;;;;5033015;28;20040;-73
2023/03/12 01:10:59;;;;;;;0.17;0.17;;;-2.00;99.90;;;;;;5033201;28;20056;-73
2023/03/12 01:13:24;;;;;;;0.20;0.20;;;-2.10;99.90;;;;;;5033101;28;20030;-73
2023/03/12 01:15:50;;;;;;;0.20;0.20;;;-2.10;99.90;;;;;;5033228;28;20022;-73
2023/03/12 01:18:15;;;;;;;0.20;0.20;;;-2.10;99.90;;;;;;5033333;28;20029;-73
2023/03/12 01:20:41;;;;;;;0.30;0.30;;;-2.20;99.90;;;;;;5033069;28;20036;-73
2023/03/12 01:23:07;;;;;;;0.28;0.28;;;-2.30;99.90;;;;;;5033314;28;20029;-73
2023/03/12 01:25:33;;;;;;;0.20;0.20;;;-2.30;99.90;;;;;;5033002;28;20030;-73
2023/03/12 01:27:59;;;;;;;0.20;0.20;;;-2.30;99.90;;;;;;5015292;28;20124;-73
2023/03/12 01:30:24;;;;;;;0.20;0.20;;;-2.30;99.90;;;;;;5033499;28;20029;-73
2023/03/12 01:32:53;;;;;;;0.20;0.20;;;-2.30;99.90;;;;;;5033134;28;20029;-73
2023/03/12 01:35:18;;;;;;;0.20;0.20;;;-2.30;99.90;;;;;;5032813;28;20035;-73
2023/03/12 01:37:44;;;;;;;0.20;0.20;;;-2.40;99.90;;;;;;5032911;28;20021;-73
2023/03/12 01:40:18;;;;;;;0.20;0.20;;;-2.40;99.90;;;;;;5033134;28;20537;-73
2023/03/12 01:42:54;;;;;;;0.20;0.20;;;-2.30;99.90;;;;;;5032857;28;20025;-73
2023/03/12 01:46:17;;;;;;;0.20;0.20;;;-2.30;99.90;;;;;;5015085;28;20372;-73
2023/03/12 01:48:47;;;;;;;0.20;0.20;;;-2.30;99.90;;;;;;4952764;29;20035;-73
2023/03/12 01:51:14;;;;;;;0.20;0.20;;;-2.30;99.90;;;;;;4953004;29;20055;-73
2023/03/12 01:53:44;;;;;;;0.13;0.13;;;-2.20;99.90;;;;;;5003432;28;20041;-73
2023/03/12 01:56:11;;;;;;;0.20;0.20;;;-2.20;99.90;;;;;;5032578;28;20048;-73
2023/03/12 01:58:39;;;;;;;0.20;0.20;;;-2.20;99.90;;;;;;5032705;28;20395;-73
2023/03/12 02:01:05;;;;;;;0.20;0.20;;;-2.10;99.90;;;;;;5032653;28;20021;-73
2023/03/12 02:03:32;;;;;;;0.20;0.20;;;-2.10;99.90;;;;;;5032948;28;20084;-73
2023/03/12 02:06:05;;;;;;;0.20;0.20;;;-2.10;99.90;;;;;;5032847;28;20033;-73
2023/03/12 02:08:34;;;;;;;;;;;-1.90;99.90;;;;;;5033248;28;20013;-73
2023/03/12 02:10:59;;;;;;;0.20;0.20;;;-1.80;99.90;;;;;;5032887;28;20377;-73
2023/03/12 02:13:26;;;;;;;0.20;0.20;;;-1.90;99.90;;;;;;5032485;28;20025;-73
2023/03/12 02:15:52;;;;;;;0.20;0.20;;;-1.90;99.90;;;;;;5032523;28;20406;-73
2023/03/12 02:18:18;;;;;;;0.20;0.20;;;-1.90;99.90;;;;;;5032773;28;20024;-73
2023/03/12 02:20:54;;;;;;;0.30;0.30;;;-1.90;99.90;;;;;;5036202;28;20022;-73
2023/03/12 02:23:26;;;;;;;0.20;0.20;;;-1.90;99.90;;;;;;5036711;28;20025;-73
2023/03/12 02:25:54;;;;;;;0.20;0.20;;;-2.00;99.90;;;;;;5036592;28;20028;-73
2023/03/12 02:28:23;;;;;;;0.20;0.20;;;-2.00;99.90;;;;;;5036610;28;20032;-73
2023/03/12 02:30:54;;;;;;;0.20;0.20;;;-1.90;99.90;;;;;;5036004;28;20479;-73
2023/03/12 02:33:20;;;;;;;0.20;0.20;;;-1.90;99.90;;;;;;5036113;28;20034;-73
2023/03/12 02:35:46;;;;;;;0.10;0.10;;;-1.90;99.90;;;;;;5035867;28;20026;-74
2023/03/12 02:38:36;;;;;;;0.20;0.20;;;-1.90;99.90;;;;;;5035862;28;20071;-73
2023/03/12 02:41:15;;;;;;;0.20;0.20;;;-1.80;99.90;;;;;;5035776;28;20457;-73
2023/03/12 02:43:44;;;;;;;0.20;0.20;;;-1.80;99.90;;;;;;5035784;28;20029;-73
2023/03/12 02:46:11;;;;;;;0.20;0.20;;;-1.70;99.90;;;;;;5035671;28;20104;-73
2023/03/12 02:48:36;;;;;;;0.20;0.20;;;-1.60;99.90;;;;;;5036007;28;20544;-73
2023/03/12 02:51:02;;;;;;;0.20;0.20;;;-1.60;99.90;;;;;;5035630;28;20041;-73
2023/03/12 02:53:28;;;;;;;0.20;0.20;;;-1.60;99.90;;;;;;5035532;28;20116;-74
2023/03/12 02:55:54;;;;;;;0.20;0.20;;;-1.60;99.90;;;;;;5017695;28;20033;-73
2023/03/12 02:58:20;;;;;;;0.10;0.10;;;-1.60;99.90;;;;;;5035549;28;20022;-73
2023/03/12 03:00:46;;;;;;;0.30;0.30;;;-1.60;99.90;;;;;;5035506;28;20403;-73
2023/03/12 03:03:11;;;;;;;0.30;0.30;;;-1.60;99.90;;;;;;5017681;28;20037;-73
2023/03/12 03:05:37;;;;;;;0.30;0.30;;;-1.70;99.90;;;;;;5035332;28;20021;-73
2023/03/12 03:08:03;;;;;;;0.10;0.10;;;-1.70;99.90;;;;;;5035347;28;20033;-73
2023/03/12 03:10:29;;;;;;;0.20;0.20;;;-1.80;99.90;;;;;;5035577;28;20422;-73
2023/03/12 03:12:54;;;;;;;0.20;0.20;;;-1.80;99.90;;;;;;5035206;28;20030;-73
2023/03/12 03:15:20;;;;;;;0.20;0.20;;;-1.90;99.90;;;;;;5035267;28;20510;-73
2023/03/12 03:17:45;;;;;;;0.10;0.10;;;-1.90;99.90;;;;;;5017403;28;20021;-73
2023/03/12 03:20:11;;;;;;;0.20;0.20;;;-2.00;99.90;;;;;;5035653;28;20057;-73
2023/03/12 03:22:38;;;;;;;0.20;0.20;;;-2.10;99.90;;;;;;5035066;28;20491;-73
2023/03/12 03:25:06;;;;;;;0.20;0.20;;;-2.10;99.90;;;;;;5034928;28;20030;-73
2023/03/12 03:27:31;;;;;;;0.20;0.20;;;-2.10;99.90;;;;;;5034982;28;20495;-73
2023/03/12 03:29:57;;;;;;;0.20;0.20;;;-2.10;99.90;;;;;;5034791;28;20056;-73
2023/03/12 03:32:22;;;;;;;0.20;0.20;;;-2.10;99.90;;;;;;5034774;28;20025;-73
2023/03/12 03:34:48;;;;;;;0.20;0.20;;;-2.20;99.90;;;;;;5034746;28;20026;-73
2023/03/12 03:37:13;;;;;;;0.20;0.20;;;-2.20;99.90;;;;;;5034777;28;20045;-73
2023/03/12 03:39:39;;;;;;;0.20;0.20;;;-2.20;99.90;;;;;;5034960;28;20483;-73
2023/03/12 03:42:05;;;;;;;0.20;0.20;;;-2.30;99.90;;;;;;5034673;28;20506;-73
2023/03/12 03:44:30;;;;;;;0.10;0.10;;;-2.20;99.90;;;;;;5034596;28;20033;-73
2023/03/12 03:46:56;;;;;;;0.20;0.20;;;-2.30;99.90;;;;;;5035016;28;20075;-73
2023/03/12 03:49:22;;;;;;;0.17;0.17;;;-2.30;99.90;;;;;;5034543;28;20033;-73
2023/03/12 03:51:48;;;;;;;0.30;0.30;;;-2.30;99.90;;;;;;5034511;28;20483;-73
2023/03/12 03:54:14;;;;;;;0.15;0.15;;;-2.30;99.90;;;;;;5016542;28;20453;-73
2023/03/12 03:56:40;;;;;;;0.30;0.30;;;-2.30;99.90;;;;;;5016756;28;20112;-74
2023/03/12 03:59:06;;;;;;;0.20;0.20;;;-2.20;99.90;;;;;;5034385;28;20112;-74
2023/03/12 04:01:31;;;;;;;0.20;0.20;;;-2.20;99.90;;;;;;5034599;28;20127;-74
2023/03/12 04:03:58;;;;;;;0.25;0.25;;;-2.20;99.90;;;;;;5034164;28;20029;-74
2023/03/12 04:06:24;;;;;;;0.20;0.20;;;-2.20;99.90;;;;;;5034197;28;20064;-74
2023/03/12 04:08:50;;;;;;;0.20;0.20;;;-2.20;99.90;;;;;;5034194;28;20049;-74
2023/03/12 04:11:19;;;;;;;0.20;0.20;;;-2.20;99.90;;;;;;5034400;28;20124;-74
2023/03/12 04:13:45;;;;;;;0.22;0.22;;;-2.10;99.90;;;;;;5016253;28;20021;-74
2023/03/12 04:16:12;;;;;;;0.20;0.20;;;-2.10;99.90;;;;;;5033943;28;20073;-74
2023/03/12 04:18:39;;;;;;;0.30;0.30;;;-2.10;99.90;;;;;;5034260;28;20025;-74
2023/03/12 04:21:07;;;;;;;0.20;0.20;;;-2.10;99.90;;;;;;5034208;28;20021;-74
2023/03/12 04:23:33;;;;;;;0.20;0.20;;;-2.10;99.90;;;;;;5016141;28;20112;-74
2023/03/12 04:25:59;;;;;;;0.22;0.22;;;-2.00;99.90;;;;;;5033766;28;20517;-74
2023/03/12 04:28:24;;;;;;;0.28;0.28;;;-2.00;99.90;;;;;;5033809;28;20029;-74
2023/03/12 04:31:00;;;;;;;0.20;0.20;;;-2.00;99.90;;;;;;5033750;28;20071;-74
2023/03/12 04:33:28;;;;;;;0.30;0.30;;;-2.10;99.90;;;;;;5033689;28;20029;-74
2023/03/12 04:35:54;;;;;;;0.20;0.20;;;-2.10;99.90;;;;;;5015942;28;20071;-74
2023/03/12 04:38:21;;;;;;;0.20;0.20;;;-2.10;99.90;;;;;;5033634;28;20496;-74
2023/03/12 04:40:56;;;;;;;0.10;0.10;;;-2.10;99.90;;;;;;5033567;28;20021;-74
2023/03/12 04:43:21;;;;;;;0.20;0.20;;;-2.00;99.90;;;;;;5033368;28;20057;-74
2023/03/12 04:45:47;;;;;;;0.20;0.20;;;-2.00;99.90;;;;;;5033463;28;20435;-74
2023/03/12 04:48:12;;;;;;;0.20;0.20;;;-1.90;99.90;;;;;;5033765;28;20109;-74
2023/03/12 04:50:38;;;;;;;0.20;0.20;;;-2.00;99.90;;;;;;5033449;28;20025;-74
2023/03/12 04:53:04;;;;;;;0.20;0.20;;;-2.00;99.90;;;;;;5033321;28;20216;-74
2023/03/12 04:55:29;;;;;;;0.30;0.30;;;-2.10;99.90;;;;;;5033209;28;20112;-74
2023/03/12 04:57:54;;;;;;;0.20;0.20;;;-2.10;99.90;;;;;;5033883;28;20385;-74
2023/03/12 05:00:20;;;;;;;0.10;0.10;;;-2.10;99.90;;;;;;5033585;28;20024;-74
2023/03/12 05:02:46;;;;;;;0.22;0.22;;;-2.10;99.90;;;;;;5033556;28;20021;-74
2023/03/12 05:05:12;;;;;;;0.20;0.20;;;-2.10;99.90;;;;;;5033481;28;20034;-74
2023/03/12 05:07:37;;;;;;;0.20;0.20;;;-2.10;99.90;;;;;;5033252;28;20100;-74
2023/03/12 05:10:03;;;;;;;0.20;0.20;;;-2.00;99.90;;;;;;5033193;28;20478;-74
2023/03/12 05:12:28;;;;;;;0.10;0.10;;;-2.00;99.90;;;;;;5033679;28;20032;-75
2023/03/12 05:14:54;;;;;;;0.20;0.20;;;-2.00;99.90;;;;;;5033075;28;20030;-74
2023/03/12 05:17:20;;;;;;;0.20;0.20;;;-2.00;99.90;;;;;;5015332;28;20124;-74
2023/03/12 05:19:46;;;;;;;0.20;0.20;;;-2.00;99.90;;;;;;5033368;28;20033;-74
2023/03/12 05:22:11;;;;;;;0.20;0.20;;;-1.90;99.90;;;;;;5033072;28;20025;-74
2023/03/12 05:24:37;;;;;;;0.20;0.20;;;-1.90;99.90;;;;;;5032960;28;20036;-74
2023/03/12 05:27:02;;;;;;;0.10;0.10;;;-1.90;99.90;;;;;;5033016;28;20036;-74
2023/03/12 05:29:34;;;;;;;0.20;0.20;;;-1.90;99.90;;;;;;5033005;28;20036;-74
2023/03/12 05:32:00;;;;;;;0.17;0.17;;;-1.90;99.90;;;;;;5033574;28;20032;-74
2023/03/12 05:34:27;;;;;;;0.20;0.20;;;-1.80;99.90;;;;;;5032828;28;20112;-74
2023/03/12 05:36:53;;;;;;;0.30;0.30;;;-1.80;99.90;;;;;;5033214;28;20049;-74
2023/03/12 05:39:19;;;;;;;0.20;0.20;;;-1.80;99.90;;;;;;5032943;28;20049;-74
2023/03/12 05:41:44;;;;;;;0.28;0.28;;;-1.90;99.90;;;;;;5015163;28;20376;-74
2023/03/12 05:44:12;;;;;;;0.20;0.20;;;-1.90;99.90;;;;;;5032788;28;20053;-74
2023/03/12 05:46:37;;;;;;;0.20;0.20;;;-1.80;99.90;;;;;;5033119;28;20026;-74
2023/03/12 05:49:03;;;;;;;0.20;0.20;;;-1.80;99.90;;;;;;5032812;28;20052;-74
2023/03/12 05:51:29;;;;;;;0.20;0.20;;;-1.80;99.90;;;;;;5033074;28;20033;-74
2023/03/12 05:53:54;;;;;;;0.20;0.20;;;-1.80;99.90;;;;;;5033614;28;20029;-74
2023/03/12 05:56:20;;;;;;;0.17;0.17;;;-1.70;99.90;;;;;;5036672;28;20075;-74
2023/03/12 05:58:48;;;;;;;0.20;0.20;;;-1.70;99.90;;;;;;5018896;28;20056;-74
2023/03/12 06:01:23;;;;;;;0.20;0.20;;;-1.60;99.90;;;;;;5036577;28;20025;-74
2023/03/12 06:03:48;;;;;;;0.10;0.10;;;-1.60;99.90;;;;;;5036668;28;20037;-74
2023/03/12 06:06:14;;;;;;;0.10;0.10;;;-1.50;99.90;;;;;;5036412;28;20030;-74
2023/03/12 06:08:41;;;;;;;0.28;0.28;;;-1.50;99.90;;;;;;5036742;28;20029;-74
2023/03/12 06:11:06;;;;;;;0.17;0.17;;;-1.50;99.90;;;;;;5036400;28;20560;-74
2023/03/12 06:13:32;;;;;;;0.10;0.10;;;-1.50;99.90;;;;;;5036562;28;20061;-74
2023/03/12 06:16:07;;;;;;;0.20;0.20;;;-1.40;99.90;;;;;;5036225;28;20017;-74
2023/03/12 06:18:34;;;;;;;0.10;0.10;;;-1.30;99.90;;;;;;5036103;28;20029;-74
2023/03/12 06:21:14;;;;;;;0.30;0.30;;;-1.30;99.90;;;;;;5036335;28;20506;-74
2023/03/12 06:23:41;;;;;;;0.20;0.20;;;-1.30;99.90;;;;;;5036494;28;20502;-74
2023/03/12 06:26:07;;;;;;;0.17;0.17;;;-1.20;99.90;;;;;;5018350;28;20048;-74
2023/03/12 06:28:33;;;;;;;0.20;0.20;;;-1.20;99.90;;;;;;5036346;28;20506;-74
2023/03/12 06:30:59;;;;;;;0.10;0.10;;;-1.10;99.90;;;;;;5036040;28;20029;-74
2023/03/12 06:33:24;;;;;;;0.10;0.10;;;-1.00;99.90;;;;;;5036494;28;20025;-74
2023/03/12 06:35:54;;;;;;;0.20;0.20;;;-0.90;99.90;;;;;;5035907;28;20079;-74
2023/03/12 06:38:20;;;;;;;0.20;0.20;;;-0.90;99.90;;;;;;5035913;28;20018;-74
2023/03/12 06:41:06;;;;;;;0.20;0.20;;;-0.80;99.90;;;;;;5036154;28;20363;-74
2023/03/12 06:43:34;;;;;;;0.13;0.13;;;-0.70;99.90;;;;;;5018076;28;20068;-74
2023/03/12 06:46:01;;;;;;;0.22;0.22;;;-0.70;99.90;;;;;;5035706;28;20025;-74
2023/03/12 06:48:28;;;;;;;0.20;0.20;;;-0.60;99.90;;;;;;5035729;28;20029;-74
2023/03/12 06:50:54;;;;;;;0.20;0.20;;;-0.50;99.90;;;;;;5035961;28;20037;-74
2023/03/12 06:53:21;;;;;;;0.13;0.13;;;-0.40;99.90;;;;;;5035498;28;20533;-75
2023/03/12 06:55:49;;;;;;;0.10;0.10;;;-0.40;99.90;;;;;;5035371;28;20029;-75
2023/03/12 06:58:15;;;;;;;0.20;0.20;;;-0.30;99.90;;;;;;5035818;28;20030;-74
2023/03/12 07:00:40;;;;;;;0.22;0.22;;;-0.30;99.90;;;;;;5035541;28;20109;-74
2023/03/12 07:03:06;;;;;;;0.20;0.20;;;-0.30;99.90;;;;;;5035443;28;20111;-74
2023/03/12 07:05:32;;;;;;;0.10;0.10;;;-0.20;99.90;;;;;;5017121;28;20025;-74
2023/03/12 07:07:57;;;;;;;0.10;0.10;;;-0.20;99.90;;;;;;5035665;28;20029;-75
2023/03/12 07:10:23;;;;;;;0.30;0.30;;;-0.10;99.90;;;;;;5017820;28;20025;-74
2023/03/12 07:12:49;;;;;;;0.20;0.20;;;0.00;99.90;;;;;;5017697;28;20106;-75
2023/03/12 07:15:15;;;;;;;0.15;0.15;;;0.10;99.90;;;;;;5035164;28;20415;-75
2023/03/12 07:17:40;;;;;;;0.20;0.20;;;0.20;99.90;;;;;;5035117;28;20030;-74
2023/03/12 07:20:07;;;;;;;0.20;0.20;;;0.30;99.90;;;;;;5035388;28;20037;-74
2023/03/12 07:22:32;;;;;;;0.20;0.20;;;0.40;99.90;;;;;;5035057;28;20449;-75
2023/03/12 07:24:58;;;;;;;0.10;0.10;;;0.50;99.90;;;;;;5035025;28;20044;-75
2023/03/12 07:27:23;;;;;;;0.20;0.20;;;0.60;99.90;;;;;;5035301;28;20043;-75
2023/03/12 07:29:49;;;;;;;0.28;0.28;;;0.70;99.90;;;;;;5034971;28;20542;-75
2023/03/12 07:32:14;;;;;;;0.20;0.20;;;0.80;99.90;;;;;;5034897;28;20096;-75
2023/03/12 07:34:40;;;;;;;0.20;0.20;;;0.90;99.90;;;;;;5034918;28;20400;-74
2023/03/12 07:37:06;;;;;;;0.30;0.30;;;0.90;99.90;;;;;;5035070;28;20025;-74
2023/03/12 07:39:31;;;;;;;0.20;0.20;;;1.00;99.90;;;;;;5035018;28;20100;-75
2023/03/12 07:41:57;;;;;;;0.20;0.20;;;1.00;99.90;;;;;;5034725;28;20437;-75
2023/03/12 07:44:25;;;;;;;0.10;0.10;;;1.10;99.90;;;;;;5034612;28;20479;-75
2023/03/12 07:46:50;;;;;;;0.20;0.20;;;1.10;99.90;;;;;;5035187;28;20383;-75
2023/03/12 07:49:16;;;;;;;0.10;0.10;;;1.20;99.90;;;;;;5034578;28;20025;-75
2023/03/12 07:51:41;;;;;;;0.20;0.20;;;1.20;99.90;;;;;;5034784;28;20033;-75
2023/03/12 07:54:07;;;;;;;0.20;0.20;;;1.30;99.90;;;;;;5034214;28;20033;-75
2023/03/12 07:56:32;;;;;;;0.10;0.10;;;1.30;99.90;;;;;;5034460;28;20025;-75
2023/03/12 07:58:58;;;;;;;0.20;0.20;;;1.30;99.90;;;;;;5034380;28;20037;-75
2023/03/12 08:01:30;;;;;;;0.20;0.20;;;1.40;99.90;;;;;;5034870;28;20083;-75
2023/03/12 08:03:56;;;;;;;0.20;0.20;;;1.40;99.90;;;;;;5034547;28;20376;-75
2023/03/12 08:06:23;;;;;;;0.10;0.10;;;1.50;99.90;;;;;;5034510;28;20029;-75
2023/03/12 08:08:49;;;;;;;0.20;0.20;;;1.50;99.90;;;;;;5034217;28;20391;-75
2023/03/12 08:11:14;;;;;;;0.20;0.20;;;1.60;99.90;;;;;;5034418;28;20033;-75
2023/03/12 08:13:40;;;;;;;0.20;0.20;;;1.70;99.90;;;;;;5034055;28;20045;-75
2023/03/12 08:16:06;;;;;;;0.20;0.20;;;1.80;99.90;;;;;;5033812;28;20494;-75
2023/03/12 08:18:31;;;;;;;0.20;0.20;;;1.90;99.90;;;;;;5033897;28;20033;-75
2023/03/12 08:20:57;;;;;;;0.20;0.20;;;2.00;99.90;;;;;;5034512;28;20106;-75
2023/03/12 08:23:22;;;;;;;0.20;0.20;;;2.10;99.90;;;;;;5033929;28;20037;-75
2023/03/12 08:25:49;;;;;;;0.20;0.20;;;2.20;99.90;;;;;;5033840;28;20033;-75
2023/03/12 08:28:16;;;;;;;0.25;0.25;;;2.20;99.90;;;;;;5033878;28;20100;-75
2023/03/12 08:30:49;;;;;;;0.15;0.15;;;2.20;99.90;;;;;;5034102;28;20025;-75
2023/03/12 08:33:14;;;;;;;0.30;0.30;;;2.10;99.90;;;;;;5033683;28;20120;-75
2023/03/12 08:35:40;;;;;;;0.20;0.20;;;2.20;99.90;;;;;;5033966;28;20459;-74
2023/03/12 08:38:06;;;;;;;0.20;0.20;;;2.30;99.90;;;;;;5033688;28;20095;-75
2023/03/12 08:40:32;;;;;;;0.10;0.10;;;2.40;99.90;;;;;;5033659;28;20072;-75
2023/03/12 08:42:57;;;;;;;0.20;0.20;;;2.50;99.90;;;;;;5033627;28;20420;-75
2023/03/12 08:45:23;;;;;;;0.20;0.20;;;2.50;99.90;;;;;;5016589;28;20025;-75
2023/03/12 08:47:49;;;;;;;0.10;0.10;;;2.50;99.90;;;;;;5033541;28;20052;-74
2023/03/12 08:50:16;;;;;;;0.30;0.30;;;2.60;99.90;;;;;;5033468;28;20501;-75
2023/03/12 08:52:42;;;;;;;0.13;0.13;;;2.60;99.90;;;;;;5033391;28;20129;-74
2023/03/12 08:55:10;;;;;;;0.20;0.20;;;2.60;99.90;;;;;;5033471;28;20029;-74
2023/03/12 08:57:35;;;;;;;0.20;0.20;;;2.70;99.90;;;;;;5015681;28;20041;-74
2023/03/12 09:00:04;;;;;;;0.13;0.13;;;2.80;99.90;;;;;;5033368;28;20022;-74
2023/03/12 09:02:30;;;;;;;0.15;0.15;;;2.80;99.90;;;;;;5033325;28;20029;-74
2023/03/12 09:04:55;;;;;;;0.20;0.20;;;2.90;99.90;;;;;;5033732;28;20398;-74
2023/03/12 09:07:21;;;;;;;0.10;0.10;;;3.20;99.90;;;;;;5033491;28;20096;-74
2023/03/12 09:09:47;;;;;;;0.20;0.20;;;3.20;99.90;;;;;;5033235;28;20096;-75
2023/03/12 09:12:13;;;;;;;0.22;0.22;;;3.20;99.90;;;;;;5033185;28;20026;-74
2023/03/12 09:14:38;;;;;;;0.20;0.20;;;3.30;99.90;;;;;;5033039;28;20491;-74
2023/03/12 09:17:04;;;;;;;0.10;0.10;;;3.30;99.90;;;;;;5033142;28;20049;-74
2023/03/12 09:19:30;;;;;;;0.20;0.20;;;3.30;99.90;;;;;;5033132;28;20105;-74
2023/03/12 09:21:56;;;;;;;0.30;0.30;;;3.40;99.90;;;;;;5033071;28;20497;-75
2023/03/12 09:24:22;;;;;;;0.20;0.20;;;3.50;99.90;;;;;;5033211;28;20048;-74
2023/03/12 09:26:48;;;;;;;0.20;0.20;;;3.50;99.90;;;;;;5033046;28;20092;-75
2023/03/12 09:29:14;;;;;;;0.20;0.20;;;3.60;99.90;;;;;;5036478;28;20434;-74
2023/03/12 09:31:39;;;;;;;0.30;0.30;;;3.80;99.90;;;;;;5037440;28;20026;-74
2023/03/12 09:34:05;;;;;;;0.10;0.10;;;4.00;99.90;;;;;;5036966;28;20030;-74
2023/03/12 09:36:31;;;;;;;0.15;0.15;;;4.20;99.90;;;;;;5037354;28;20036;-74
2023/03/12 09:38:56;;;;;;;0.20;0.20;;;4.30;99.90;;;;;;5037306;28;20026;-74
2023/03/12 09:41:38;;;;;;;0.20;0.20;;;4.40;99.90;;;;;;5037203;28;20045;-74
2023/03/12 09:44:09;;;;;;;0.10;0.10;;;4.60;99.90;;;;;;5037154;28;20029;-74
2023/03/12 09:46:47;;;;;;;0.20;0.20;;;4.70;99.90;;;;;;5037194;28;20057;-74
2023/03/12 09:49:39;;;;;;;0.20;0.20;;;4.80;99.90;;;;;;5037155;28;20040;-74
2023/03/12 09:52:22;;;;;;;0.20;0.20;;;5.00;99.90;;;;;;5037102;28;20390;-74
2023/03/12 09:55:04;;;;;;;0.20;0.20;;;4.90;99.90;;;;;;5036887;28;20440;-74
2023/03/12 09:57:30;;;;;;;0.20;0.20;;;4.80;99.90;;;;;;5037028;28;20040;-74
2023/03/12 09:59:56;;;;;;;0.20;0.20;;;4.80;99.90;;;;;;5036642;28;20025;-74
2023/03/12 10:02:59;;;;;;;0.22;0.22;;;4.70;99.90;;;;;;5036585;28;20057;-74
2023/03/12 10:05:40;;;;;;;0.10;0.10;;;4.60;99.90;;;;;;5036599;28;20036;-74
2023/03/12 10:08:34;;;;;;;0.20;0.20;;;4.40;99.90;;;;;;5036503;28;20032;-74
2023/03/12 10:11:36;;;;;;;0.20;0.20;;;4.30;99.90;;;;;;5036777;28;20112;-74
2023/03/12 10:14:25;;;;;;;0.20;0.20;;;4.30;99.90;;;;;;5036441;28;20109;-74
2023/03/12 10:17:01;;;;;;;0.20;0.20;;;4.40;99.90;;;;;;5036388;28;20490;-74
2023/03/12 10:19:47;;;;;;;0.20;0.20;;;4.50;99.90;;;;;;5018628;28;20029;-74
2023/03/12 10:22:27;;;;;;;0.10;0.10;;;4.60;99.90;;;;;;5036814;28;20031;-74
2023/03/12 10:24:53;;;;;;;0.20;0.20;;;4.70;99.90;;;;;;5036121;28;20502;-74
2023/03/12 10:27:21;;;;;;;0.20;0.20;;;4.70;99.90;;;;;;5018414;28;20144;-74
2023/03/12 10:29:51;;;;;;;0.20;0.20;;;4.80;99.90;;;;;;5036010;28;20025;-74
2023/03/12 10:32:23;;;;;;;0.10;0.10;;;4.90;99.90;;;;;;5036345;28;20021;-74
2023/03/12 10:34:56;;;;;;;0.20;0.20;;;5.00;99.90;;;;;;5036229;28;20106;-74
2023/03/12 10:38:01;;;;;;;0.20;0.20;;;5.10;99.90;;;;;;5036309;28;20257;-74
2023/03/12 10:40:33;;;;;;;0.10;0.10;;;5.10;99.90;;;;;;4995346;28;20021;-74
2023/03/12 10:42:59;;;;;;;0.22;0.22;;;5.00;99.90;;;;;;5035940;28;20029;-74
2023/03/12 10:45:36;;;;;;;0.20;0.20;;;4.90;99.90;;;;;;5035778;28;20026;-74
2023/03/12 10:48:10;;;;;;;0.10;0.10;;;4.80;99.90;;;;;;5036387;28;20026;-74
2023/03/12 10:50:38;;;;;;;0.20;0.20;;;4.80;99.90;;;;;;5036241;28;20018;-74
2023/03/12 10:53:25;;;;;;;0.20;0.20;;;4.80;99.90;;;;;;5035839;28;20493;-74
2023/03/12 10:56:05;;;;;;;0.13;0.13;;;4.90;99.90;;;;;;5035473;28;20507;-74
2023/03/12 10:58:37;;;;;;;0.10;0.10;;;4.90;99.90;;;;;;5036164;28;20060;-74
2023/03/12 11:01:05;;;;;;;0.20;0.20;;;4.70;99.90;;;;;;5035724;28;20025;-74
2023/03/12 11:03:32;;;;;;;0.20;0.20;;;4.70;99.90;;;;;;5035467;28;20087;-74
2023/03/12 11:06:00;;;;;;;0.20;0.20;;;4.70;99.90;;;;;;5035380;28;20457;-74
2023/03/12 11:08:31;;;;;;;0.20;0.20;;;4.60;99.90;;;;;;5017671;28;20076;-74
2023/03/12 11:10:59;;;;;;;0.20;0.20;;;4.60;99.90;;;;;;5035390;28;20022;-74
2023/03/12 11:13:32;;;;;;;0.20;0.20;;;4.70;99.90;;;;;;5035212;28;20108;-74
2023/03/12 11:16:00;;;;;;;0.20;0.20;;;4.70;99.90;;;;;;5035252;28;20423;-74
2023/03/12 11:18:32;;;;;;;0.20;0.20;;;4.70;99.90;;;;;;5035214;28;20017;-74
2023/03/12 11:21:18;;;;;;;0.20;0.20;;;4.80;99.90;;;;;;5035460;28;20021;-74
2023/03/12 11:24:03;;;;;;;0.15;0.15;;;4.90;99.90;;;;;;5035503;28;20087;-74
2023/03/12 11:26:44;;;;;;;0.20;0.20;;;4.90;99.90;;;;;;5035390;28;20475;-74
2023/03/12 11:29:30;;;;;;;0.20;0.20;;;4.90;99.90;;;;;;5017254;28;20101;-74
2023/03/12 11:31:55;;;;;;;0.20;0.20;;;5.00;99.90;;;;;;5034987;28;20491;-74
2023/03/12 11:34:25;;;;;;;0.20;0.20;;;5.10;99.90;;;;;;5034746;28;20029;-74
2023/03/12 11:37:10;;;;;;;0.20;0.20;;;5.00;99.90;;;;;;5034809;28;20486;-74
2023/03/12 11:39:58;;;;;;;0.20;0.20;;;4.90;99.90;;;;;;5034789;28;20021;-74
2023/03/12 11:42:23;;;;;;;0.20;0.20;;;4.90;99.90;;;;;;5034753;28;20088;-74
2023/03/12 11:45:14;;;;;;;0.20;0.20;;;4.80;99.90;;;;;;5034771;28;20025;-74
2023/03/12 11:48:03;;;;;;;0.20;0.20;;;4.90;99.90;;;;;;5034651;28;20025;-74
2023/03/12 11:50:56;;;;;;;0.20;0.20;;;4.90;99.90;;;;;;5034635;28;20022;-74
2023/03/12 11:53:30;;;;;;;0.10;0.10;;;5.00;99.90;;;;;;5034636;28;20025;-74
2023/03/12 11:56:25;;;;;;;0.10;0.10;;;5.00;99.90;;;;;;5034318;28;20514;-74
2023/03/12 11:58:50;;;;;;;;;;;5.00;99.90;;;;;;5035155;28;20037;-74
2023/03/12 12:01:30;;;;;;;0.20;0.20;;;5.10;99.90;;;;;;5034360;28;19905;-74
2023/03/12 12:04:25;;;;;;;0.20;0.20;;;5.10;99.90;;;;;;5034835;28;20501;-74
2023/03/12 12:07:24;;;;;;;0.20;0.20;;;5.00;99.90;;;;;;5034901;28;20108;-74
2023/03/12 12:10:13;;;;;;;0.20;0.20;;;5.00;99.90;;;;;;5034325;28;20032;-74
2023/03/12 12:13:08;;;;;;;0.10;0.10;;;4.90;99.90;;;;;;5021791;28;20065;-74
2023/03/12 12:15:34;;;;;;;0.20;0.20;;;4.90;99.90;;;;;;5023325;28;20701;-74
2023/03/12 12:18:37;;;;;;;0.20;0.20;;;4.90;99.90;;;;;;5034059;28;20100;-74
2023/03/12 12:21:28;;;;;;;0.20;0.20;;;4.80;99.90;;;;;;5034039;28;20072;-74
2023/03/12 12:23:54;;;;;;;0.20;0.20;;;4.50;99.90;;;;;;5033766;28;20025;-73
2023/03/12 12:26:54;;;;;;;0.20;0.20;;;4.40;99.90;;;;;;5033923;28;20083;-73
2023/03/12 12:29:31;;;;;;;0.20;0.20;;;4.20;99.90;;;;;;5033561;28;20394;-74
2023/03/12 12:31:59;;;;;;;0.10;0.10;;;4.30;99.90;;;;;;5033880;28;20029;-74
2023/03/12 12:34:38;;;;;;;0.20;0.20;;;4.10;99.90;;;;;;5033630;28;20474;-74
2023/03/12 12:37:29;;;;;;;0.20;0.20;;;4.10;99.90;;;;;;5034064;28;20364;-74
2023/03/12 12:40:03;;;;;;;0.10;0.10;;;4.00;99.90;;;;;;5033968;28;20436;-74
2023/03/12 12:42:32;;;;;;;0.20;0.20;;;3.90;99.90;;;;;;5033974;28;20096;-74
2023/03/12 12:45:01;;;;;;;0.15;0.15;;;3.80;99.90;;;;;;5033707;28;20025;-74
2023/03/12 12:47:43;;;;;;;0.10;0.10;;;3.80;99.90;;;;;;5033561;28;20483;-74
2023/03/12 12:50:19;;;;;;;0.20;0.20;;;4.00;99.90;;;;;;5033869;28;20036;-74
2023/03/12 12:52:51;;;;;;;0.13;0.13;;;4.00;99.90;;;;;;5033449;28;20037;-74
2023/03/12 12:55:38;;;;;;;0.20;0.20;;;4.10;99.90;;;;;;5033551;28;20034;-74
2023/03/12 12:58:37;;;;;;;0.20;0.20;;;4.20;99.90;;;;;;5033696;28;20059;-74
2023/03/12 13:01:02;;;;;;;0.20;0.20;;;4.20;99.90;;;;;;5032873;28;20038;-74
2023/03/12 13:03:29;;;;;;;0.10;0.10;;;4.20;99.90;;;;;;5032915;28;20028;-74
2023/03/12 13:05:55;;;;;;;0.20;0.20;;;4.20;99.90;;;;;;5033243;28;20465;-74